sensor_id;sensor_type;location;lat;lon;timestamp;P1;durP1;ratioP1;P2;durP2;ratioP2
34064;SDS011;20339;49.754;20.158;2023-06-19T00:02:06;7.10;;;6.20;;
34064;SDS011;20339;49.754;20.158;2023-06-19T00:04:35;5.80;;;5.10;;
34064;SDS011;20339;49.754;20.158;2023-06-19T00:07:06;7.00;;;6.10;;
34064;SDS011;20339;49.754;20.158;2023-06-19T00:09:35;8.10;;;6.60;;
34064;SDS011;20339;49.754;20.158;2023-06-19T00:12:06;7.20;;;6.50;;
34064;SDS011;20339;49.754;20.158;2023-06-19T00:17:06;8.50;;;6.70;;
34064;SDS011;20339;49.754;20.158;2023-06-19T00:19:36;7.90;;;6.50;;
34064;SDS011;20339;49.754;20.158;2023-06-19T00:22:07;7.20;;;6.50;;
34064;SDS011;20339;49.754;20.158;2023-06-19T00:24:36;8.60;;;6.60;;
34064;SDS011;20339;49.754;20.158;2023-06-19T00:27:06;8.30;;;6.70;;
34064;SDS011;20339;49.754;20.158;2023-06-19T00:29:35;7.60;;;6.80;;
34064;SDS011;20339;49.754;20.158;2023-06-19T00:32:04;7.30;;;6.60;;
34064;SDS011;20339;49.754;20.158;2023-06-19T00:34:36;8.30;;;7.10;;
34064;SDS011;20339;49.754;20.158;2023-06-19T00:37:07;8.30;;;6.70;;
34064;SDS011;20339;49.754;20.158;2023-06-19T00:39:36;9.90;;;7.20;;
34064;SDS011;20339;49.754;20.158;2023-06-19T00:42:05;7.40;;;6.50;;
34064;SDS011;20339;49.754;20.158;2023-06-19T00:44:34;6.80;;;6.10;;
34064;SDS011;20339;49.754;20.158;2023-06-19T00:47:05;8.90;;;7.30;;
34064;SDS011;20339;49.754;20.158;2023-06-19T00:49:36;7.60;;;6.60;;
34064;SDS011;20339;49.754;20.158;2023-06-19T00:52:06;7.30;;;6.60;;
34064;SDS011;20339;49.754;20.158;2023-06-19T00:54:38;7.80;;;6.50;;
34064;SDS011;20339;49.754;20.158;2023-06-19T00:57:07;7.60;;;6.50;;
34064;SDS011;20339;49.754;20.158;2023-06-19T00:59:36;6.70;;;6.00;;
34064;SDS011;20339;49.754;20.158;2023-06-19T01:02:05;7.00;;;6.30;;
34064;SDS011;20339;49.754;20.158;2023-06-19T01:07:04;7.10;;;6.10;;
34064;SDS011;20339;49.754;20.158;2023-06-19T01:09:38;7.70;;;6.30;;
34064;SDS011;20339;49.754;20.158;2023-06-19T01:12:13;7.70;;;6.50;;
34064;SDS011;20339;49.754;20.158;2023-06-19T01:14:50;7.30;;;6.60;;
34064;SDS011;20339;49.754;20.158;2023-06-19T01:17:25;7.40;;;6.50;;
34064;SDS011;20339;49.754;20.158;2023-06-19T01:19:54;6.80;;;6.10;;
34064;SDS011;20339;49.754;20.158;2023-06-19T01:22:25;7.60;;;6.80;;
34064;SDS011;20339;49.754;20.158;2023-06-19T01:24:54;7.40;;;6.70;;
34064;SDS011;20339;49.754;20.158;2023-06-19T01:27:23;7.90;;;6.80;;
34064;SDS011;20339;49.754;20.158;2023-06-19T01:29:56;7.30;;;6.40;;
34064;SDS011;20339;49.754;20.158;2023-06-19T01:32:29;7.80;;;7.00;;
34064;SDS011;20339;49.754;20.158;2023-06-19T01:35:04;7.50;;;6.70;;
34064;SDS011;20339;49.754;20.158;2023-06-19T01:37:39;7.50;;;6.70;;
34064;SDS011;20339;49.754;20.158;2023-06-19T01:40:09;8.60;;;6.90;;
34064;SDS011;20339;49.754;20.158;2023-06-19T01:42:40;7.30;;;6.60;;
34064;SDS011;20339;49.754;20.158;2023-06-19T01:45:10;7.50;;;6.10;;
34064;SDS011;20339;49.754;20.158;2023-06-19T01:47:41;8.10;;;6.90;;
34064;SDS011;20339;49.754;20.158;2023-06-19T01:50:14;7.30;;;6.50;;
34064;SDS011;20339;49.754;20.158;2023-06-19T01:52:42;9.80;;;6.60;;
34064;SDS011;20339;49.754;20.158;2023-06-19T01:55:12;8.50;;;7.30;;
34064;SDS011;20339;49.754;20.158;2023-06-19T02:00:09;6.90;;;6.20;;
34064;SDS011;20339;49.754;20.158;2023-06-19T02:02:41;8.80;;;6.90;;
34064;SDS011;20339;49.754;20.158;2023-06-19T02:05:09;7.30;;;6.60;;
34064;SDS011;20339;49.754;20.158;2023-06-19T02:07:38;8.00;;;7.00;;
34064;SDS011;20339;49.754;20.158;2023-06-19T02:10:07;8.20;;;7.10;;
34064;SDS011;20339;49.754;20.158;2023-06-19T02:12:36;7.50;;;6.80;;
34064;SDS011;20339;49.754;20.158;2023-06-19T02:15:09;8.40;;;6.90;;
34064;SDS011;20339;49.754;20.158;2023-06-19T02:17:38;7.60;;;6.80;;
34064;SDS011;20339;49.754;20.158;2023-06-19T02:20:10;7.80;;;6.60;;
34064;SDS011;20339;49.754;20.158;2023-06-19T02:22:39;7.50;;;6.60;;
34064;SDS011;20339;49.754;20.158;2023-06-19T02:25:08;7.40;;;6.50;;
34064;SDS011;20339;49.754;20.158;2023-06-19T02:27:37;7.70;;;6.90;;
34064;SDS011;20339;49.754;20.158;2023-06-19T02:30:08;7.60;;;6.80;;
34064;SDS011;20339;49.754;20.158;2023-06-19T02:32:37;7.20;;;6.30;;
34064;SDS011;20339;49.754;20.158;2023-06-19T02:35:08;7.80;;;6.40;;
34064;SDS011;20339;49.754;20.158;2023-06-19T02:37:41;7.40;;;6.60;;
34064;SDS011;20339;49.754;20.158;2023-06-19T02:40:13;8.00;;;7.20;;
34064;SDS011;20339;49.754;20.158;2023-06-19T02:42:41;8.90;;;7.30;;
34064;SDS011;20339;49.754;20.158;2023-06-19T02:45:12;8.40;;;6.70;;
34064;SDS011;20339;49.754;20.158;2023-06-19T02:47:42;7.90;;;6.80;;
34064;SDS011;20339;49.754;20.158;2023-06-19T02:50:12;8.00;;;7.20;;
34064;SDS011;20339;49.754;20.158;2023-06-19T02:52:41;8.00;;;7.20;;
34064;SDS011;20339;49.754;20.158;2023-06-19T02:55:09;8.00;;;7.10;;
34064;SDS011;20339;49.754;20.158;2023-06-19T02:57:43;8.00;;;7.00;;
34064;SDS011;20339;49.754;20.158;2023-06-19T03:02:41;7.80;;;6.80;;
34064;SDS011;20339;49.754;20.158;2023-06-19T03:05:11;11.50;;;6.90;;
34064;SDS011;20339;49.754;20.158;2023-06-19T03:07:42;7.80;;;7.00;;
34064;SDS011;20339;49.754;20.158;2023-06-19T03:10:11;7.40;;;6.70;;
34064;SDS011;20339;49.754;20.158;2023-06-19T03:12:40;8.30;;;7.00;;
34064;SDS011;20339;49.754;20.158;2023-06-19T03:15:09;8.10;;;7.30;;
34064;SDS011;20339;49.754;20.158;2023-06-19T03:17:37;7.90;;;6.60;;
34064;SDS011;20339;49.754;20.158;2023-06-19T03:20:07;8.80;;;7.40;;
34064;SDS011;20339;49.754;20.158;2023-06-19T03:22:39;7.90;;;7.10;;
34064;SDS011;20339;49.754;20.158;2023-06-19T03:25:09;8.30;;;7.40;;
34064;SDS011;20339;49.754;20.158;2023-06-19T03:27:37;9.20;;;7.30;;
34064;SDS011;20339;49.754;20.158;2023-06-19T03:30:07;7.90;;;6.90;;
34064;SDS011;20339;49.754;20.158;2023-06-19T03:32:39;7.80;;;7.00;;
34064;SDS011;20339;49.754;20.158;2023-06-19T03:35:09;7.60;;;6.80;;
34064;SDS011;20339;49.754;20.158;2023-06-19T03:37:39;7.50;;;6.80;;
34064;SDS011;20339;49.754;20.158;2023-06-19T03:40:09;7.30;;;6.60;;
34064;SDS011;20339;49.754;20.158;2023-06-19T03:42:40;10.00;;;7.70;;
34064;SDS011;20339;49.754;20.158;2023-06-19T03:45:09;7.60;;;6.90;;
34064;SDS011;20339;49.754;20.158;2023-06-19T03:47:38;8.40;;;6.70;;
34064;SDS011;20339;49.754;20.158;2023-06-19T03:50:08;7.50;;;6.70;;
34064;SDS011;20339;49.754;20.158;2023-06-19T03:52:37;7.80;;;7.00;;
34064;SDS011;20339;49.754;20.158;2023-06-19T03:55:06;8.60;;;6.70;;
34064;SDS011;20339;49.754;20.158;2023-06-19T03:57:37;7.70;;;6.90;;
34064;SDS011;20339;49.754;20.158;2023-06-19T04:00:07;6.90;;;6.10;;
34064;SDS011;20339;49.754;20.158;2023-06-19T04:02:39;7.60;;;6.70;;
34064;SDS011;20339;49.754;20.158;2023-06-19T04:05:10;7.80;;;6.90;;
34064;SDS011;20339;49.754;20.158;2023-06-19T04:07:38;7.20;;;6.40;;
34064;SDS011;20339;49.754;20.158;2023-06-19T04:10:07;9.10;;;6.50;;
34064;SDS011;20339;49.754;20.158;2023-06-19T04:12:43;8.00;;;7.20;;
34064;SDS011;20339;49.754;20.158;2023-06-19T04:15:15;7.70;;;6.90;;
34064;SDS011;20339;49.754;20.158;2023-06-19T04:17:44;9.20;;;7.30;;
34064;SDS011;20339;49.754;20.158;2023-06-19T04:22:41;7.10;;;6.40;;
34064;SDS011;20339;49.754;20.158;2023-06-19T04:25:09;8.90;;;6.40;;
34064;SDS011;20339;49.754;20.158;2023-06-19T04:27:40;7.50;;;6.40;;
34064;SDS011;20339;49.754;20.158;2023-06-19T04:30:15;7.70;;;6.90;;
34064;SDS011;20339;49.754;20.158;2023-06-19T04:32:44;8.30;;;7.00;;
34064;SDS011;20339;49.754;20.158;2023-06-19T04:35:13;6.30;;;5.70;;
34064;SDS011;20339;49.754;20.158;2023-06-19T04:37:45;6.50;;;5.90;;
34064;SDS011;20339;49.754;20.158;2023-06-19T04:40:17;7.40;;;6.60;;
34064;SDS011;20339;49.754;20.158;2023-06-19T04:42:46;7.80;;;6.40;;
34064;SDS011;20339;49.754;20.158;2023-06-19T04:45:20;7.00;;;5.90;;
34064;SDS011;20339;49.754;20.158;2023-06-19T04:47:50;8.00;;;6.20;;
34064;SDS011;20339;49.754;20.158;2023-06-19T04:50:18;7.60;;;6.40;;
34064;SDS011;20339;49.754;20.158;2023-06-19T04:52:48;8.10;;;6.80;;
34064;SDS011;20339;49.754;20.158;2023-06-19T04:55:19;7.80;;;7.00;;
34064;SDS011;20339;49.754;20.158;2023-06-19T04:57:48;7.20;;;6.50;;
34064;SDS011;20339;49.754;20.158;2023-06-19T05:00:19;7.50;;;6.70;;
34064;SDS011;20339;49.754;20.158;2023-06-19T05:02:50;9.10;;;6.30;;
34064;SDS011;20339;49.754;20.158;2023-06-19T05:05:27;7.60;;;6.80;;
34064;SDS011;20339;49.754;20.158;2023-06-19T05:07:56;7.70;;;6.90;;
34064;SDS011;20339;49.754;20.158;2023-06-19T05:10:25;7.80;;;6.70;;
34064;SDS011;20339;49.754;20.158;2023-06-19T05:12:57;7.60;;;6.70;;
34064;SDS011;20339;49.754;20.158;2023-06-19T05:15:26;7.90;;;7.10;;
34064;SDS011;20339;49.754;20.158;2023-06-19T05:17:55;7.30;;;6.60;;
34064;SDS011;20339;49.754;20.158;2023-06-19T05:20:24;8.20;;;6.90;;
34064;SDS011;20339;49.754;20.158;2023-06-19T05:22:52;7.10;;;6.40;;
34064;SDS011;20339;49.754;20.158;2023-06-19T05:25:23;7.00;;;6.30;;
34064;SDS011;20339;49.754;20.158;2023-06-19T05:27:52;6.50;;;5.90;;
34064;SDS011;20339;49.754;20.158;2023-06-19T05:30:22;6.70;;;6.00;;
34064;SDS011;20339;49.754;20.158;2023-06-19T05:32:53;9.30;;;5.90;;
34064;SDS011;20339;49.754;20.158;2023-06-19T05:50:36;6.70;;;5.30;;
34064;SDS011;20339;49.754;20.158;2023-06-19T05:53:05;5.50;;;5.00;;
34064;SDS011;20339;49.754;20.158;2023-06-19T05:55:39;6.20;;;5.60;;
34064;SDS011;20339;49.754;20.158;2023-06-19T05:58:13;6.10;;;5.50;;
34064;SDS011;20339;49.754;20.158;2023-06-19T06:00:52;5.90;;;5.30;;
34064;SDS011;20339;49.754;20.158;2023-06-19T06:03:27;5.60;;;5.10;;
34064;SDS011;20339;49.754;20.158;2023-06-19T06:05:59;5.30;;;4.80;;
34064;SDS011;20339;49.754;20.158;2023-06-19T06:11:43;5.40;;;4.90;;
34064;SDS011;20339;49.754;20.158;2023-06-19T06:14:16;5.20;;;4.70;;
34064;SDS011;20339;49.754;20.158;2023-06-19T06:16:54;5.10;;;4.70;;
34064;SDS011;20339;49.754;20.158;2023-06-19T06:22:17;6.90;;;5.20;;
34064;SDS011;20339;49.754;20.158;2023-06-19T06:24:50;5.50;;;4.80;;
34064;SDS011;20339;49.754;20.158;2023-06-19T06:27:25;5.30;;;4.80;;
34064;SDS011;20339;49.754;20.158;2023-06-19T06:30:02;5.40;;;4.90;;
34064;SDS011;20339;49.754;20.158;2023-06-19T06:33:07;5.50;;;4.90;;
34064;SDS011;20339;49.754;20.158;2023-06-19T06:35:57;5.20;;;4.70;;
34064;SDS011;20339;49.754;20.158;2023-06-19T06:38:27;5.20;;;4.70;;
34064;SDS011;20339;49.754;20.158;2023-06-19T06:41:02;5.80;;;4.60;;
34064;SDS011;20339;49.754;20.158;2023-06-19T06:43:39;5.50;;;4.60;;
34064;SDS011;20339;49.754;20.158;2023-06-19T06:46:20;5.60;;;4.70;;
34064;SDS011;20339;49.754;20.158;2023-06-19T06:49:35;5.90;;;5.30;;
34064;SDS011;20339;49.754;20.158;2023-06-19T06:52:11;6.60;;;5.20;;
34064;SDS011;20339;49.754;20.158;2023-06-19T06:54:48;6.00;;;5.40;;
34064;SDS011;20339;49.754;20.158;2023-06-19T06:57:29;6.60;;;4.80;;
34064;SDS011;20339;49.754;20.158;2023-06-19T07:00:00;9.40;;;5.10;;
34064;SDS011;20339;49.754;20.158;2023-06-19T07:02:32;5.50;;;4.90;;
34064;SDS011;20339;49.754;20.158;2023-06-19T07:05:00;8.10;;;4.60;;
34064;SDS011;20339;49.754;20.158;2023-06-19T07:07:30;6.30;;;5.00;;
34064;SDS011;20339;49.754;20.158;2023-06-19T07:09:58;6.60;;;4.50;;
34064;SDS011;20339;49.754;20.158;2023-06-19T07:12:27;9.90;;;5.50;;
34064;SDS011;20339;49.754;20.158;2023-06-19T07:14:55;6.70;;;5.20;;
34064;SDS011;20339;49.754;20.158;2023-06-19T07:17:24;6.70;;;4.90;;
34064;SDS011;20339;49.754;20.158;2023-06-19T07:19:52;6.20;;;4.90;;
34064;SDS011;20339;49.754;20.158;2023-06-19T07:22:23;5.30;;;4.80;;
34064;SDS011;20339;49.754;20.158;2023-06-19T07:24:51;6.10;;;5.10;;
34064;SDS011;20339;49.754;20.158;2023-06-19T07:27:20;5.60;;;5.00;;
34064;SDS011;20339;49.754;20.158;2023-06-19T07:29:49;5.60;;;5.10;;
34064;SDS011;20339;49.754;20.158;2023-06-19T07:32:17;6.20;;;5.00;;
34064;SDS011;20339;49.754;20.158;2023-06-19T07:34:48;8.40;;;4.80;;
34064;SDS011;20339;49.754;20.158;2023-06-19T07:37:16;6.20;;;4.80;;
34064;SDS011;20339;49.754;20.158;2023-06-19T07:39:45;7.80;;;4.80;;
34064;SDS011;20339;49.754;20.158;2023-06-19T07:42:14;14.40;;;5.70;;
34064;SDS011;20339;49.754;20.158;2023-06-19T07:44:45;5.90;;;4.90;;
34064;SDS011;20339;49.754;20.158;2023-06-19T07:47:16;5.80;;;5.20;;
34064;SDS011;20339;49.754;20.158;2023-06-19T07:49:47;5.50;;;4.90;;
34064;SDS011;20339;49.754;20.158;2023-06-19T07:52:15;6.30;;;4.80;;
34064;SDS011;20339;49.754;20.158;2023-06-19T07:54:54;5.50;;;5.00;;
34064;SDS011;20339;49.754;20.158;2023-06-19T07:57:25;6.30;;;5.40;;
34064;SDS011;20339;49.754;20.158;2023-06-19T07:59:55;5.70;;;4.90;;
34064;SDS011;20339;49.754;20.158;2023-06-19T08:02:26;6.10;;;5.50;;
34064;SDS011;20339;49.754;20.158;2023-06-19T08:04:59;5.70;;;5.20;;
34064;SDS011;20339;49.754;20.158;2023-06-19T08:07:33;6.80;;;5.20;;
34064;SDS011;20339;49.754;20.158;2023-06-19T08:10:06;6.20;;;5.10;;
34064;SDS011;20339;49.754;20.158;2023-06-19T08:12:40;5.60;;;5.00;;
34064;SDS011;20339;49.754;20.158;2023-06-19T08:15:12;7.80;;;5.90;;
34064;SDS011;20339;49.754;20.158;2023-06-19T08:17:41;6.70;;;5.10;;
34064;SDS011;20339;49.754;20.158;2023-06-19T08:20:11;6.00;;;5.30;;
34064;SDS011;20339;49.754;20.158;2023-06-19T08:22:42;5.70;;;5.20;;
34064;SDS011;20339;49.754;20.158;2023-06-19T08:25:10;6.30;;;5.50;;
34064;SDS011;20339;49.754;20.158;2023-06-19T08:27:39;6.70;;;5.50;;
34064;SDS011;20339;49.754;20.158;2023-06-19T08:30:08;6.00;;;5.20;;
34064;SDS011;20339;49.754;20.158;2023-06-19T08:35:05;5.90;;;5.20;;
34064;SDS011;20339;49.754;20.158;2023-06-19T08:37:34;6.00;;;5.40;;
34064;SDS011;20339;49.754;20.158;2023-06-19T08:42:41;5.90;;;5.30;;
34064;SDS011;20339;49.754;20.158;2023-06-19T08:45:12;6.50;;;5.20;;
34064;SDS011;20339;49.754;20.158;2023-06-19T08:47:41;5.90;;;5.00;;
34064;SDS011;20339;49.754;20.158;2023-06-19T08:50:12;5.90;;;5.30;;
34064;SDS011;20339;49.754;20.158;2023-06-19T08:52:41;7.00;;;5.00;;
34064;SDS011;20339;49.754;20.158;2023-06-19T08:55:12;6.10;;;5.40;;
34064;SDS011;20339;49.754;20.158;2023-06-19T08:57:48;5.40;;;4.90;;
34064;SDS011;20339;49.754;20.158;2023-06-19T09:00:24;5.60;;;4.80;;
34064;SDS011;20339;49.754;20.158;2023-06-19T09:02:59;6.10;;;5.50;;
34064;SDS011;20339;49.754;20.158;2023-06-19T09:05:30;6.20;;;5.60;;
34064;SDS011;20339;49.754;20.158;2023-06-19T09:07:59;7.60;;;5.10;;
34064;SDS011;20339;49.754;20.158;2023-06-19T09:10:29;6.20;;;5.60;;
34064;SDS011;20339;49.754;20.158;2023-06-19T09:12:59;5.90;;;5.30;;
34064;SDS011;20339;49.754;20.158;2023-06-19T09:15:32;5.80;;;5.00;;
34064;SDS011;20339;49.754;20.158;2023-06-19T09:18:02;7.00;;;5.50;;
34064;SDS011;20339;49.754;20.158;2023-06-19T09:20:33;5.50;;;5.00;;
34064;SDS011;20339;49.754;20.158;2023-06-19T09:23:08;6.10;;;5.50;;
34064;SDS011;20339;49.754;20.158;2023-06-19T09:25:44;6.00;;;5.40;;
34064;SDS011;20339;49.754;20.158;2023-06-19T09:28:18;6.40;;;5.00;;
34064;SDS011;20339;49.754;20.158;2023-06-19T09:30:52;5.30;;;4.80;;
34064;SDS011;20339;49.754;20.158;2023-06-19T09:33:21;5.60;;;4.90;;
34064;SDS011;20339;49.754;20.158;2023-06-19T09:35:50;7.10;;;5.40;;
34064;SDS011;20339;49.754;20.158;2023-06-19T09:38:21;6.50;;;5.50;;
34064;SDS011;20339;49.754;20.158;2023-06-19T09:40:53;6.00;;;5.20;;
34064;SDS011;20339;49.754;20.158;2023-06-19T09:43:29;6.80;;;5.10;;
34064;SDS011;20339;49.754;20.158;2023-06-19T09:46:00;6.10;;;4.90;;
34064;SDS011;20339;49.754;20.158;2023-06-19T09:48:32;5.30;;;4.60;;
34064;SDS011;20339;49.754;20.158;2023-06-19T09:51:02;5.70;;;5.10;;
34064;SDS011;20339;49.754;20.158;2023-06-19T09:53:37;6.30;;;5.30;;
34064;SDS011;20339;49.754;20.158;2023-06-19T09:56:06;6.00;;;5.40;;
34064;SDS011;20339;49.754;20.158;2023-06-19T09:58:36;5.70;;;5.00;;
34064;SDS011;20339;49.754;20.158;2023-06-19T10:01:09;6.70;;;5.20;;
34064;SDS011;20339;49.754;20.158;2023-06-19T10:03:39;6.30;;;4.60;;
34064;SDS011;20339;49.754;20.158;2023-06-19T10:06:12;5.80;;;5.30;;
34064;SDS011;20339;49.754;20.158;2023-06-19T10:08:42;5.60;;;5.10;;
34064;SDS011;20339;49.754;20.158;2023-06-19T10:11:15;5.30;;;4.80;;
34064;SDS011;20339;49.754;20.158;2023-06-19T10:13:46;5.70;;;5.10;;
34064;SDS011;20339;49.754;20.158;2023-06-19T10:16:21;4.80;;;4.30;;
34064;SDS011;20339;49.754;20.158;2023-06-19T10:18:51;5.40;;;4.90;;
34064;SDS011;20339;49.754;20.158;2023-06-19T10:21:20;4.70;;;4.30;;
34064;SDS011;20339;49.754;20.158;2023-06-19T10:23:53;4.90;;;4.10;;
34064;SDS011;20339;49.754;20.158;2023-06-19T10:26:30;5.10;;;4.40;;
34064;SDS011;20339;49.754;20.158;2023-06-19T10:28:59;5.70;;;4.40;;
34064;SDS011;20339;49.754;20.158;2023-06-19T10:31:28;12.70;;;5.10;;
34064;SDS011;20339;49.754;20.158;2023-06-19T10:33:59;5.80;;;4.70;;
34064;SDS011;20339;49.754;20.158;2023-06-19T10:36:30;5.20;;;4.40;;
34064;SDS011;20339;49.754;20.158;2023-06-19T10:38:58;5.20;;;4.70;;
34064;SDS011;20339;49.754;20.158;2023-06-19T10:41:27;5.40;;;4.70;;
34064;SDS011;20339;49.754;20.158;2023-06-19T10:43:56;6.00;;;4.90;;
34064;SDS011;20339;49.754;20.158;2023-06-19T10:46:29;6.30;;;4.30;;
34064;SDS011;20339;49.754;20.158;2023-06-19T10:49:01;5.10;;;4.40;;
34064;SDS011;20339;49.754;20.158;2023-06-19T12:51:08;4.20;;;3.80;;
34064;SDS011;20339;49.754;20.158;2023-06-19T12:53:40;4.10;;;3.60;;
34064;SDS011;20339;49.754;20.158;2023-06-19T12:56:11;5.20;;;3.50;;
34064;SDS011;20339;49.754;20.158;2023-06-19T12:58:45;4.00;;;3.30;;
34064;SDS011;20339;49.754;20.158;2023-06-19T13:01:19;3.50;;;3.20;;
34064;SDS011;20339;49.754;20.158;2023-06-19T13:03:50;3.40;;;3.10;;
34064;SDS011;20339;49.754;20.158;2023-06-19T13:06:21;4.30;;;3.50;;
34064;SDS011;20339;49.754;20.158;2023-06-19T13:08:54;12.70;;;8.20;;
34064;SDS011;20339;49.754;20.158;2023-06-19T13:11:26;5.90;;;4.30;;
34064;SDS011;20339;49.754;20.158;2023-06-19T13:14:02;5.40;;;4.00;;
34064;SDS011;20339;49.754;20.158;2023-06-19T13:16:33;6.90;;;4.20;;
34064;SDS011;20339;49.754;20.158;2023-06-19T13:19:05;10.70;;;5.60;;
34064;SDS011;20339;49.754;20.158;2023-06-19T13:21:36;5.40;;;3.90;;
34064;SDS011;20339;49.754;20.158;2023-06-19T13:24:08;25.30;;;8.20;;
34064;SDS011;20339;49.754;20.158;2023-06-19T13:26:40;8.00;;;4.40;;
34064;SDS011;20339;49.754;20.158;2023-06-19T13:29:12;5.10;;;4.10;;
34064;SDS011;20339;49.754;20.158;2023-06-19T13:31:44;9.50;;;5.50;;
34064;SDS011;20339;49.754;20.158;2023-06-19T13:34:16;10.90;;;5.40;;
34064;SDS011;20339;49.754;20.158;2023-06-19T13:36:50;6.60;;;5.00;;
34064;SDS011;20339;49.754;20.158;2023-06-19T13:39:24;6.10;;;5.30;;
34064;SDS011;20339;49.754;20.158;2023-06-19T13:41:55;5.90;;;4.90;;
34064;SDS011;20339;49.754;20.158;2023-06-19T13:44:29;6.70;;;4.80;;
34064;SDS011;20339;49.754;20.158;2023-06-19T13:47:02;5.70;;;5.10;;
34064;SDS011;20339;49.754;20.158;2023-06-19T13:49:39;5.50;;;4.40;;
34064;SDS011;20339;49.754;20.158;2023-06-19T13:52:12;6.30;;;5.40;;
34064;SDS011;20339;49.754;20.158;2023-06-19T13:54:45;5.80;;;5.10;;
34064;SDS011;20339;49.754;20.158;2023-06-19T13:57:16;5.60;;;5.00;;
34064;SDS011;20339;49.754;20.158;2023-06-19T13:59:49;7.30;;;5.50;;
34064;SDS011;20339;49.754;20.158;2023-06-19T14:02:20;7.80;;;5.60;;
34064;SDS011;20339;49.754;20.158;2023-06-19T14:05:00;5.60;;;5.10;;
34064;SDS011;20339;49.754;20.158;2023-06-19T14:07:33;6.10;;;4.90;;
34064;SDS011;20339;49.754;20.158;2023-06-19T14:10:07;6.80;;;5.20;;
34064;SDS011;20339;49.754;20.158;2023-06-19T14:12:40;6.50;;;5.00;;
34064;SDS011;20339;49.754;20.158;2023-06-19T14:15:12;6.50;;;4.90;;
34064;SDS011;20339;49.754;20.158;2023-06-19T14:17:44;4.90;;;4.50;;
34064;SDS011;20339;49.754;20.158;2023-06-19T14:20:16;4.80;;;4.20;;
34064;SDS011;20339;49.754;20.158;2023-06-19T14:22:50;5.30;;;4.80;;
34064;SDS011;20339;49.754;20.158;2023-06-19T14:25:27;5.30;;;4.80;;
34064;SDS011;20339;49.754;20.158;2023-06-19T14:28:06;6.20;;;4.90;;
34064;SDS011;20339;49.754;20.158;2023-06-19T14:30:37;5.40;;;4.90;;
34064;SDS011;20339;49.754;20.158;2023-06-19T14:33:09;5.10;;;4.40;;
34064;SDS011;20339;49.754;20.158;2023-06-19T14:35:43;5.00;;;4.50;;
34064;SDS011;20339;49.754;20.158;2023-06-19T14:38:15;6.10;;;5.50;;
34064;SDS011;20339;49.754;20.158;2023-06-19T14:40:48;7.70;;;4.80;;
34064;SDS011;20339;49.754;20.158;2023-06-19T14:43:25;5.50;;;4.90;;
34064;SDS011;20339;49.754;20.158;2023-06-19T14:46:07;5.40;;;4.70;;
34064;SDS011;20339;49.754;20.158;2023-06-19T14:48:41;5.70;;;5.00;;
34064;SDS011;20339;49.754;20.158;2023-06-19T14:51:13;6.00;;;5.00;;
34064;SDS011;20339;49.754;20.158;2023-06-19T14:53:47;5.60;;;5.10;;
34064;SDS011;20339;49.754;20.158;2023-06-19T14:56:22;5.30;;;4.80;;
34064;SDS011;20339;49.754;20.158;2023-06-19T14:58:58;5.40;;;4.80;;
34064;SDS011;20339;49.754;20.158;2023-06-19T15:01:32;7.70;;;5.60;;
34064;SDS011;20339;49.754;20.158;2023-06-19T15:04:06;6.30;;;5.20;;
34064;SDS011;20339;49.754;20.158;2023-06-19T15:06:37;6.00;;;5.40;;
34064;SDS011;20339;49.754;20.158;2023-06-19T15:09:11;7.80;;;5.80;;
34064;SDS011;20339;49.754;20.158;2023-06-19T15:12:01;5.80;;;5.10;;
34064;SDS011;20339;49.754;20.158;2023-06-19T15:14:38;7.20;;;5.30;;
34064;SDS011;20339;49.754;20.158;2023-06-19T15:17:12;8.10;;;5.70;;
34064;SDS011;20339;49.754;20.158;2023-06-19T15:19:48;6.60;;;5.50;;
34064;SDS011;20339;49.754;20.158;2023-06-19T15:22:21;6.40;;;5.40;;
34064;SDS011;20339;49.754;20.158;2023-06-19T15:24:53;6.70;;;5.70;;
34064;SDS011;20339;49.754;20.158;2023-06-19T15:27:26;6.80;;;5.50;;
34064;SDS011;20339;49.754;20.158;2023-06-19T15:29:58;6.70;;;5.50;;
34064;SDS011;20339;49.754;20.158;2023-06-19T15:32:32;7.60;;;5.00;;
34064;SDS011;20339;49.754;20.158;2023-06-19T15:35:05;6.10;;;5.50;;
34064;SDS011;20339;49.754;20.158;2023-06-19T15:37:37;7.30;;;5.90;;
34064;SDS011;20339;49.754;20.158;2023-06-19T15:40:09;6.90;;;6.10;;
34064;SDS011;20339;49.754;20.158;2023-06-19T15:42:42;8.00;;;5.60;;
34064;SDS011;20339;49.754;20.158;2023-06-19T15:45:13;7.80;;;6.20;;
34064;SDS011;20339;49.754;20.158;2023-06-19T15:47:45;7.40;;;5.80;;
34064;SDS011;20339;49.754;20.158;2023-06-19T15:50:19;7.00;;;5.80;;
34064;SDS011;20339;49.754;20.158;2023-06-19T15:52:50;7.70;;;6.10;;
34064;SDS011;20339;49.754;20.158;2023-06-19T15:55:22;7.20;;;6.10;;
34064;SDS011;20339;49.754;20.158;2023-06-19T15:57:55;6.30;;;5.70;;
34064;SDS011;20339;49.754;20.158;2023-06-19T16:00:29;8.00;;;6.10;;
34064;SDS011;20339;49.754;20.158;2023-06-19T16:03:00;8.30;;;6.20;;
34064;SDS011;20339;49.754;20.158;2023-06-19T16:05:33;9.50;;;6.20;;
34064;SDS011;20339;49.754;20.158;2023-06-19T16:08:05;8.40;;;6.40;;
34064;SDS011;20339;49.754;20.158;2023-06-19T16:10:36;7.60;;;6.40;;
34064;SDS011;20339;49.754;20.158;2023-06-19T16:13:08;10.30;;;6.30;;
34064;SDS011;20339;49.754;20.158;2023-06-19T16:15:40;6.70;;;5.60;;
34064;SDS011;20339;49.754;20.158;2023-06-19T16:18:16;7.50;;;6.40;;
34064;SDS011;20339;49.754;20.158;2023-06-19T16:20:48;9.10;;;6.10;;
34064;SDS011;20339;49.754;20.158;2023-06-19T16:23:23;7.80;;;6.00;;
34064;SDS011;20339;49.754;20.158;2023-06-19T16:25:56;7.60;;;6.30;;
34064;SDS011;20339;49.754;20.158;2023-06-19T16:28:36;6.60;;;5.90;;
34064;SDS011;20339;49.754;20.158;2023-06-19T16:31:09;6.70;;;6.00;;
34064;SDS011;20339;49.754;20.158;2023-06-19T16:33:43;6.30;;;5.70;;
34064;SDS011;20339;49.754;20.158;2023-06-19T16:36:21;6.40;;;5.80;;
34064;SDS011;20339;49.754;20.158;2023-06-19T16:38:52;8.70;;;6.00;;
34064;SDS011;20339;49.754;20.158;2023-06-19T16:41:28;11.10;;;6.00;;
34064;SDS011;20339;49.754;20.158;2023-06-19T16:44:00;6.70;;;5.50;;
34064;SDS011;20339;49.754;20.158;2023-06-19T16:46:31;9.90;;;6.30;;
34064;SDS011;20339;49.754;20.158;2023-06-19T16:49:03;9.20;;;6.50;;
34064;SDS011;20339;49.754;20.158;2023-06-19T16:51:35;6.60;;;5.90;;
34064;SDS011;20339;49.754;20.158;2023-06-19T16:54:07;8.40;;;6.40;;
34064;SDS011;20339;49.754;20.158;2023-06-19T16:56:39;10.10;;;7.00;;
34064;SDS011;20339;49.754;20.158;2023-06-19T16:59:11;12.40;;;6.70;;
34064;SDS011;20339;49.754;20.158;2023-06-19T17:01:46;14.40;;;7.60;;
34064;SDS011;20339;49.754;20.158;2023-06-19T17:04:19;14.10;;;8.00;;
34064;SDS011;20339;49.754;20.158;2023-06-19T17:06:50;19.10;;;7.90;;
34064;SDS011;20339;49.754;20.158;2023-06-19T17:09:27;34.50;;;11.00;;
34064;SDS011;20339;49.754;20.158;2023-06-19T17:11:59;17.10;;;7.30;;
34064;SDS011;20339;49.754;20.158;2023-06-19T17:14:36;10.10;;;6.50;;
34064;SDS011;20339;49.754;20.158;2023-06-19T17:17:11;11.00;;;7.50;;
34064;SDS011;20339;49.754;20.158;2023-06-19T17:19:43;17.00;;;8.80;;
34064;SDS011;20339;49.754;20.158;2023-06-19T17:22:15;14.90;;;7.60;;
34064;SDS011;20339;49.754;20.158;2023-06-19T17:24:48;7.60;;;6.40;;
34064;SDS011;20339;49.754;20.158;2023-06-19T17:27:25;6.80;;;6.00;;
34064;SDS011;20339;49.754;20.158;2023-06-19T17:29:59;7.40;;;6.20;;
34064;SDS011;20339;49.754;20.158;2023-06-19T17:32:32;7.80;;;6.50;;
34064;SDS011;20339;49.754;20.158;2023-06-19T17:35:05;6.50;;;5.90;;
34064;SDS011;20339;49.754;20.158;2023-06-19T17:37:43;10.60;;;6.90;;
34064;SDS011;20339;49.754;20.158;2023-06-19T17:40:17;16.30;;;7.30;;